Time;durP1;ratioP1;P1;durP2;ratioP2;P2;SDS_P1;SDS_P2;PMS_P1;PMS_P2;Temp;Humidity;BMP_temperature;BMP_pressure;BME280_temperature;BME280_humidity;BME280_pressure;Samples;Min_cycle;Max_cycle;Signal;HPM_P1;HPM_P2
2023/04/02 00:02:20;;;;;;;;;;;10.90;91.00;;;11.19;57.54;97904.63;4911438;28;123269;-76
2023/04/02 00:05:18;;;;;;;;;;;10.90;91.00;;;11.17;57.32;97906.13;4913409;28;119595;-77
2023/04/02 00:07:52;;;;;;;;;;;10.90;91.00;;;11.15;57.40;97913.94;4927283;28;118821;-76
2023/04/02 00:10:38;;;;;;;;;;;10.90;91.00;;;11.15;57.30;97909.22;4923479;28;124791;-76
2023/04/02 00:13:19;;;;;;;;;;;10.90;91.00;;;11.17;57.24;97919.94;4914052;28;123969;-77
2023/04/02 00:15:56;;;;;;;;;;;10.90;91.00;;;11.19;57.45;97914.88;4915659;28;120471;-77
2023/04/02 00:18:32;;;;;;;;;;;10.90;91.00;;;11.19;57.35;97917.66;4923079;28;119895;-77
2023/04/02 00:21:07;;;;;;;;;;;10.90;91.00;;;11.19;57.72;97912.13;4925763;28;124237;-78
2023/04/02 00:23:43;;;;;;;;;;;10.90;91.00;;;11.19;57.34;97923.19;4926891;28;124309;-77
2023/04/02 00:26:31;;;;;;;;;;;10.90;91.00;;;11.18;57.19;97922.38;4926224;28;119263;-77
2023/04/02 00:29:02;;;;;;;;;;;10.90;91.00;;;11.20;57.50;97933.91;4925043;28;118802;-78
2023/04/02 00:31:30;;;;;;;;;;;10.90;91.00;;;11.21;57.62;97934.72;4926323;28;123907;-77
2023/04/02 00:33:59;;;;;;;;;;;10.90;91.00;;;11.20;57.74;97938.59;4925495;28;124673;-77
2023/04/02 00:36:38;;;;;;;;;;;10.90;91.00;;;11.19;57.48;97939.75;4926503;28;119885;-76
2023/04/02 00:39:11;;;;;;;;;;;10.90;91.00;;;11.20;57.69;97944.97;4925503;28;118737;-77
2023/04/02 00:41:38;;;;;;;;;;;10.90;91.00;;;11.18;57.29;97938.97;4915103;28;124343;-76
2023/04/02 00:44:04;;;;;;;;;;;10.90;90.90;;;11.21;57.34;97943.81;4923717;28;125319;-77
2023/04/02 00:46:48;;;;;;;;;;;10.90;90.90;;;11.22;57.48;97939.88;4915921;28;119488;-77
2023/04/02 00:49:23;;;;;;;;;;;11.00;91.00;;;11.23;57.30;97946.22;4925945;28;118599;-77
2023/04/02 00:51:58;;;;;;;;;;;11.00;91.00;;;11.23;57.15;97932.41;4928396;28;124446;-74
2023/04/02 00:54:26;;;;;;;;;;;10.90;91.00;;;11.24;57.12;97939.56;4928680;28;124119;-76
2023/04/02 00:56:57;;;;;;;;;;;10.90;90.90;;;11.23;57.30;97935.16;4925791;28;119553;-75
2023/04/02 00:59:33;;;;;;;;;;;10.90;91.10;;;11.20;57.35;97936.69;4941466;28;118581;-76
2023/04/02 01:02:26;;;;;;;;;;;10.90;90.90;;;11.16;57.24;97934.91;4932362;28;122990;-76
2023/04/02 01:05:02;;;;;;;;;;;10.90;91.00;;;11.13;57.79;97941.94;4926518;28;124656;-76
2023/04/02 01:07:50;;;;;;;;;;;10.90;91.00;;;11.08;57.39;97928.31;4931092;28;120562;-75
2023/04/02 01:10:25;;;;;;;;;;;10.80;91.00;;;11.07;57.42;97940.53;4931580;28;118701;-76
2023/04/02 01:13:24;;;;;;;;;;;10.80;91.00;;;11.05;57.68;97940.03;4929709;28;124089;-76
2023/04/02 01:16:10;;;;;;;;;;;10.80;91.10;;;11.02;57.84;97944.28;4909358;28;126278;-76
2023/04/02 01:18:45;;;;;;;;;;;10.70;91.10;;;11.03;57.93;97943.13;4929453;28;120350;-76
2023/04/02 01:21:40;;;;;;;;;;;10.80;91.10;;;11.04;57.95;97949.47;4920474;28;118656;-77
2023/04/02 01:24:13;;;;;;;;;;;10.80;91.10;;;11.01;57.61;97945.41;4928547;28;124366;-75
2023/04/02 01:27:03;;;;;;;;;;;10.80;91.10;;;11.00;57.67;97943.81;4928790;28;124369;-76
2023/04/02 01:29:32;;;;;;;;;;;10.70;91.10;;;10.97;57.95;97952.78;4929764;28;120136;-76
2023/04/02 01:32:05;;;;;;;;;;;10.70;91.10;;;10.99;57.57;97958.78;4926102;28;118794;-76
2023/04/02 01:34:32;;;;;;;;;;;10.70;91.20;;;10.97;58.15;97949.22;4929890;28;125126;-75
2023/04/02 01:37:33;;;;;;;;;;;10.70;91.20;;;10.93;57.84;97949.06;4930759;28;126359;-74
2023/04/02 01:40:13;;;;;;;;;;;10.70;91.20;;;10.92;58.29;97944.69;4928184;28;118863;-75
2023/04/02 01:42:49;;;;;;;;;;;10.70;91.20;;;10.92;58.39;97955.72;4947769;28;118137;-75
2023/04/02 01:45:27;;;;;;;;;;;10.70;91.20;;;10.92;57.93;97958.50;4929210;28;124202;-75
2023/04/02 01:48:15;;;;;;;;;;;10.70;91.20;;;10.95;57.87;97954.25;4919051;28;123543;-75
2023/04/02 01:50:43;;;;;;;;;;;10.70;91.20;;;10.95;58.05;97962.53;4924192;28;120084;-75
2023/04/02 01:53:16;;;;;;;;;;;10.70;91.20;;;10.94;57.84;97963.69;4937119;28;119233;-76
2023/04/02 01:55:44;;;;;;;;;;;10.70;91.20;;;10.94;57.96;97964.50;4929445;28;124318;-76
2023/04/02 01:58:19;;;;;;;;;;;10.70;91.20;;;10.97;58.06;97966.59;4930922;28;124019;-75
2023/04/02 02:00:56;;;;;;;;;;;10.70;91.20;;;10.98;57.65;97968.19;4927845;28;121435;-75
2023/04/02 02:03:29;;;;;;;;;;;10.70;91.20;;;10.96;57.84;97967.75;4913479;28;119200;-76
2023/04/02 02:05:56;;;;;;;;;;;10.70;91.20;;;10.96;58.06;97969.69;4926411;28;124223;-75
2023/04/02 02:08:27;;;;;;;;;;;10.70;91.20;;;10.96;58.08;97969.69;4916506;28;123305;-75
2023/04/02 02:10:53;;;;;;;;;;;10.70;91.20;;;10.94;57.75;97967.28;4930984;28;119418;-76
2023/04/02 02:13:20;;;;;;;;;;;10.70;91.20;;;10.94;57.74;97977.53;4920028;28;118757;-75
2023/04/02 02:15:49;;;;;;;;;;;10.70;91.20;;;10.95;58.14;97979.13;4923066;28;124986;-75
2023/04/02 02:18:22;;;;;;;;;;;10.70;91.20;;;10.94;57.81;97972.78;4924533;28;124215;-75
2023/04/02 02:20:52;;;;;;;;;;;10.70;91.20;;;10.94;57.79;97980.28;4920167;28;117896;-75
2023/04/02 02:23:20;;;;;;;;;;;10.70;91.20;;;10.93;58.22;97992.47;4927234;28;119308;-75
2023/04/02 02:25:52;;;;;;;;;;;10.70;91.20;;;10.90;57.73;97991.19;4931668;28;122943;-75
2023/04/02 02:28:26;;;;;;;;;;;10.70;91.20;;;10.91;57.76;97992.81;4929392;28;123687;-76
2023/04/02 02:31:04;;;;;;;;;;;10.70;91.20;;;10.91;58.21;97990.06;4942560;28;119846;-76
2023/04/02 02:33:41;;;;;;;;;;;10.70;91.20;;;10.93;57.98;97998.78;4927719;28;118419;-76
2023/04/02 02:36:15;;;;;;;;;;;10.70;91.20;;;10.94;58.11;97997.66;4927693;28;124308;-76
2023/04/02 02:38:53;;;;;;;;;;;10.70;91.30;;;10.96;57.75;98003.69;4927284;28;123923;-76
2023/04/02 02:41:40;;;;;;;;;;;10.70;91.20;;;11.01;57.73;98011.75;4929685;28;120159;-76
2023/04/02 02:44:09;;;;;;;;;;;10.80;91.30;;;11.03;58.05;98008.66;4929587;28;118837;-75
2023/04/02 02:46:44;;;;;;;;;;;10.70;91.20;;;11.03;57.58;98020.53;4925776;28;124376;-75
2023/04/02 02:49:18;;;;;;;;;;;10.80;91.20;;;11.04;58.01;98018.56;4927313;28;124571;-77
2023/04/02 02:51:52;;;;;;;;;;;10.80;91.20;;;11.05;57.72;98012.72;4930328;28;119993;-76
2023/04/02 02:54:19;;;;;;;;;;;10.80;91.20;;;11.08;57.82;98015.97;4920676;28;119930;-76
2023/04/02 02:56:56;;;;;;;;;;;10.80;91.20;;;11.10;57.70;98019.22;4930587;28;124492;-76
2023/04/02 02:59:25;;;;;;;;;;;10.80;91.20;;;11.12;57.91;98016.91;4933544;28;123396;-76
2023/04/02 03:01:53;;;;;;;;;;;10.90;91.30;;;11.13;57.70;98026.81;4929603;28;119592;-78
2023/04/02 03:04:24;;;;;;;;;;;10.90;91.30;;;11.13;58.01;98022.09;4927591;28;118971;-76
2023/04/02 03:06:54;;;;;;;;;;;10.90;91.20;;;11.12;57.87;98016.91;4927201;28;124122;-76
2023/04/02 03:09:25;;;;;;;;;;;10.90;91.20;;;11.11;57.91;98027.16;4929868;28;123605;-76
2023/04/02 03:12:00;;;;;;;;;;;10.90;91.30;;;11.12;57.78;98028.75;4927837;28;119348;-76
2023/04/02 03:14:38;;;;;;;;;;;10.80;91.30;;;11.11;58.03;98040.97;4928190;28;119425;-76
2023/04/02 03:17:20;;;;;;;;;;;10.80;91.30;;;11.12;57.87;98044.53;4940627;28;124841;-77
2023/04/02 03:19:55;;;;;;;;;;;10.80;91.30;;;11.08;58.15;98030.59;4926220;28;124636;-76
2023/04/02 03:22:30;;;;;;;;;;;10.90;91.30;;;11.06;58.04;98035.63;4923541;28;119626;-76
2023/04/02 03:25:29;;;;;;;;;;;10.80;91.30;;;11.05;58.17;98037.59;4926582;28;119493;-76
2023/04/02 03:28:04;;;;;;;;;;;10.80;91.30;;;11.03;58.41;98047.38;4916702;28;124143;-76
2023/04/02 03:30:53;;;;;;;;;;;10.80;91.30;;;10.99;58.48;98047.22;4924667;28;123961;-76
2023/04/02 03:33:30;;;;;;;;;;;10.80;91.40;;;11.00;58.37;98048.03;4928586;28;119803;-76
2023/04/02 03:36:24;;;;;;;;;;;10.80;91.40;;;10.99;58.46;98051.97;4925737;28;118778;-77
2023/04/02 03:39:32;;;;;;;;;;;10.80;91.40;;;10.94;58.51;98052.94;4926385;28;124223;-75
2023/04/02 03:42:17;;;;;;;;;;;10.70;91.40;;;10.96;58.19;98047.06;4928750;28;123965;-76
2023/04/02 03:44:47;;;;;;;;;;;10.70;91.50;;;10.95;58.61;98051.78;4925882;28;121140;-75
2023/04/02 03:47:41;;;;;;;;;;;10.80;91.50;;;10.99;58.82;98052.75;4913596;28;118565;-75
2023/04/02 03:50:21;;;;;;;;;;;10.70;91.50;;;11.03;58.67;98064.75;4914123;28;123044;-75
2023/04/02 03:52:53;;;;;;;;;;;10.80;91.60;;;11.07;58.75;98067.69;4926575;28;123085;-76
2023/04/02 03:55:31;;;;;;;;;;;10.80;91.60;;;11.11;58.50;98074.16;4914733;28;118486;-75
2023/04/02 03:58:17;;;;;;;;;;;10.80;91.60;;;11.12;58.45;98072.19;4930162;28;118033;-76
2023/04/02 04:00:46;;;;;;;;;;;10.90;91.70;;;11.15;58.47;98071.50;4927184;28;124424;-76
2023/04/02 04:03:22;;;;;;;;;;;10.90;91.70;;;11.15;58.17;98072.34;4928462;28;124180;-76
2023/04/02 04:06:05;;;;;;;;;;;10.90;91.60;;;11.15;58.66;98072.34;4925618;28;118988;-76
2023/04/02 04:08:41;;;;;;;;;;;10.90;91.60;;;11.14;58.79;98075.44;4927577;28;118125;-76
2023/04/02 04:11:23;;;;;;;;;;;10.90;91.60;;;11.13;58.58;98073.81;4917370;28;124390;-76
2023/04/02 04:13:56;;;;;;;;;;;10.80;91.60;;;11.12;58.29;98083.25;4934203;28;123030;-76
2023/04/02 04:16:31;;;;;;;;;;;10.80;91.60;;;11.08;58.76;98087.84;4927364;28;119771;-76
2023/04/02 04:19:11;;;;;;;;;;;10.90;91.70;;;11.08;58.82;98079.53;4912859;28;117971;-76
2023/04/02 04:21:44;;;;;;;;;;;10.80;91.70;;;11.05;58.58;98081.03;4921181;28;124011;-76
2023/04/02 04:24:20;;;;;;;;;;;10.80;91.70;;;11.04;59.03;98094.03;4930259;28;124213;-76
2023/04/02 04:27:02;;;;;;;;;;;10.80;91.70;;;11.03;58.65;98102.66;4939324;28;119639;-76
2023/04/02 04:29:55;;;;;;;;;;;10.80;91.80;;;11.02;59.11;98099.06;4917162;28;118424;-76
2023/04/02 04:32:37;;;;;;;;;;;10.80;91.80;;;11.02;58.87;98101.84;4929099;28;123536;-76
2023/04/02 04:35:26;;;;;;;;;;;10.80;91.80;;;11.02;59.09;98110.13;4927771;28;124326;-76
2023/04/02 04:38:04;;;;;;;;;;;10.80;91.80;;;11.03;58.97;98120.03;4919497;28;120307;-76
2023/04/02 04:40:39;;;;;;;;;;;10.80;91.80;;;11.03;58.89;98114.50;4909818;28;119034;-76
2023/04/02 04:43:15;;;;;;;;;;;10.80;91.80;;;11.03;59.28;98113.72;4929045;28;124222;-75
2023/04/02 04:45:51;;;;;;;;;;;10.80;91.90;;;11.04;58.88;98127.22;4924967;28;124272;-76
2023/04/02 04:48:27;;;;;;;;;;;10.80;91.90;;;11.04;59.05;98118.91;4922291;28;119617;-76
2023/04/02 04:51:01;;;;;;;;;;;10.80;91.90;;;11.04;58.90;98120.84;4918574;28;119197;-76
2023/04/02 04:53:28;;;;;;;;;;;10.80;91.90;;;11.03;58.86;98124.75;4925364;28;123929;-77
2023/04/02 04:56:04;;;;;;;;;;;10.80;91.90;;;11.02;58.96;98126.72;4926543;28;124145;-76
2023/04/02 04:58:54;;;;;;;;;;;10.80;92.00;;;11.01;59.28;98135.34;4911435;28;118964;-76
2023/04/02 05:01:28;;;;;;;;;;;10.80;92.00;;;11.00;59.36;98139.25;4925757;28;118961;-77
2023/04/02 05:04:04;;;;;;;;;;;10.80;92.00;;;10.99;59.52;98137.63;4925726;28;123896;-76
2023/04/02 05:06:55;;;;;;;;;;;10.70;92.00;;;10.99;59.46;98141.22;4911893;28;123549;-76
2023/04/02 05:09:27;;;;;;;;;;;10.80;92.10;;;10.98;59.25;98145.09;4926514;28;119410;-76
2023/04/02 05:12:17;;;;;;;;;;;10.70;92.10;;;10.99;59.50;98143.16;4925212;28;118794;-76
2023/04/02 05:15:04;;;;;;;;;;;10.70;92.10;;;11.00;59.46;98142.81;4925411;28;124306;-76
2023/04/02 05:17:42;;;;;;;;;;;10.80;92.10;;;11.03;59.62;98144.91;4930635;28;123582;-76
2023/04/02 05:20:28;;;;;;;;;;;10.80;92.10;;;11.05;59.07;98150.94;4913038;28;119481;-76
2023/04/02 05:23:03;;;;;;;;;;;10.80;92.10;;;11.06;59.35;98155.31;4912280;28;118089;-76
2023/04/02 05:25:33;;;;;;;;;;;10.80;92.10;;;11.08;59.12;98159.72;4925338;28;124299;-77
2023/04/02 05:28:01;;;;;;;;;;;10.90;92.10;;;11.10;59.43;98151.91;4931081;28;123516;-78
2023/04/02 05:30:31;;;;;;;;;;;10.80;92.10;;;11.12;59.21;98158.69;4927541;28;120450;-76
2023/04/02 05:33:06;;;;;;;;;;;10.90;92.10;;;11.13;59.04;98162.28;4926684;28;119410;-76
2023/04/02 05:35:40;;;;;;;;;;;10.90;92.10;;;11.16;59.01;98167.16;4923520;28;125000;-76
2023/04/02 05:38:06;;;;;;;;;;;10.90;92.10;;;11.20;59.08;98174.47;4932664;28;123259;-76
2023/04/02 05:40:42;;;;;;;;;;;10.90;92.10;;;11.24;59.14;98174.59;4916794;28;118361;-77
2023/04/02 05:43:16;;;;;;;;;;;11.00;92.10;;;11.27;59.10;98176.69;4932524;28;118386;-76
2023/04/02 05:45:45;;;;;;;;;;;11.00;92.10;;;11.30;59.05;98173.25;4926301;28;124106;-75
2023/04/02 05:48:31;;;;;;;;;;;11.00;92.10;;;11.31;58.70;98180.44;4929239;28;123820;-75
2023/04/02 05:51:13;;;;;;;;;;;11.00;92.00;;;11.34;58.66;98179.78;4927644;28;121507;-75
2023/04/02 05:53:52;;;;;;;;;;;11.00;92.00;;;11.38;58.77;98175.19;4929142;28;119612;-75
2023/04/02 05:56:27;;;;;;;;;;;11.10;92.10;;;11.42;58.55;98183.63;4942137;28;124344;-75
2023/04/02 05:59:03;;;;;;;;;;;11.10;92.00;;;11.45;58.47;98188.50;4928127;28;124563;-76
2023/04/02 06:01:37;;;;;;;;;;;11.10;92.00;;;11.44;58.76;98190.44;4913861;28;118678;-76
2023/04/02 06:04:25;;;;;;;;;;;11.10;91.90;;;11.47;58.60;98192.56;4931539;28;118026;-75
2023/04/02 06:07:00;;;;;;;;;;;11.20;92.00;;;11.50;58.29;98194.66;4919724;28;124315;-76
2023/04/02 06:10:04;;;;;;;;;;;11.20;91.90;;;11.52;58.33;98204.56;4928837;28;124640;-75
2023/04/02 06:12:40;;;;;;;;;;;11.20;91.90;;;11.57;58.42;98210.72;4929950;28;119446;-76
2023/04/02 06:15:14;;;;;;;;;;;11.20;91.90;;;11.60;58.20;98215.56;4915356;28;118094;-76
2023/04/02 06:17:57;;;;;;;;;;;11.30;91.90;;;11.61;58.01;98216.41;4926262;28;124528;-76
2023/04/02 06:20:24;;;;;;;;;;;11.30;91.80;;;11.60;58.26;98226.66;4914951;28;123647;-76
2023/04/02 06:22:57;;;;;;;;;;;11.30;91.80;;;11.61;58.21;98231.06;4925252;28;121059;-78
2023/04/02 06:25:48;;;;;;;;;;;11.30;91.80;;;11.60;58.03;98232.19;4929751;28;119498;-76
2023/04/02 06:28:35;;;;;;;;;;;11.30;91.70;;;11.62;58.15;98231.84;4931228;28;124607;-76
2023/04/02 06:31:13;;;;;;;;;;;11.30;91.70;;;11.61;58.09;98233.81;4926231;28;123909;-77
2023/04/02 06:33:40;;;;;;;;;;;11.30;91.60;;;11.61;58.11;98233.00;4913599;28;118328;-77
2023/04/02 06:36:12;;;;;;;;;;;11.30;91.60;;;11.62;57.98;98231.84;4927930;28;118394;-76
2023/04/02 06:38:39;;;;;;;;;;;11.30;91.60;;;11.66;58.11;98243.88;4923784;28;124221;-76
2023/04/02 06:41:21;;;;;;;;;;;11.40;91.70;;;11.69;57.70;98241.25;4910311;28;122915;-74
2023/04/02 06:44:14;;;;;;;;;;;11.40;91.60;;;11.72;57.62;98243.34;4922682;28;119579;-77
2023/04/02 06:46:51;;;;;;;;;;;11.40;91.60;;;11.74;57.50;98256.88;4924958;28;118594;-76
2023/04/02 06:49:47;;;;;;;;;;;11.40;91.60;;;11.73;57.62;98258.00;4912593;28;123255;-77
2023/04/02 06:52:24;;;;;;;;;;;11.40;91.50;;;11.73;57.58;98263.53;4931492;28;123944;-77
2023/04/02 06:54:50;;;;;;;;;;;11.40;91.50;;;11.73;57.84;98260.78;4924891;28;119508;-77
2023/04/02 06:57:22;;;;;;;;;;;11.50;91.50;;;11.76;57.64;98273.94;4927881;28;118857;-76
2023/04/02 06:59:49;;;;;;;;;;;11.40;91.50;;;11.78;57.76;98277.19;4918176;28;123676;-76
2023/04/02 07:02:58;;;;;;;;;;;11.40;91.50;;;11.83;57.51;98287.28;4926827;28;124017;-77
2023/04/02 07:05:24;;;;;;;;;;;11.50;91.60;;;11.88;57.57;98295.41;4904807;28;119754;-77
2023/04/02 07:07:51;;;;;;;;;;;11.50;91.50;;;11.90;57.18;98291.19;4890700;28;118809;-76
2023/04/02 07:10:25;;;;;;;;;;;11.60;91.50;;;11.96;58.53;98291.00;4906342;28;124452;-77
2023/04/02 07:12:52;;;;;;;;;;;11.60;91.80;;;12.04;58.36;98295.66;4892872;28;122903;-75
2023/04/02 16:43:29;;;;;;;1.50;1.40;;;9.90;96.70;;;9.36;70.36;98935.03;5052360;27;96531;-75
2023/04/02 16:46:28;;;;;;;1.60;1.50;;;9.90;97.40;;;9.63;70.28;98934.28;5045457;27;107239;-73
2023/04/02 16:49:14;;;;;;;12.33;2.03;;;10.00;97.00;;;9.94;68.67;98942.84;5013013;27;123981;-77
2023/04/02 16:52:23;;;;;;;1.80;1.70;;;10.00;96.70;;;10.12;67.28;98941.91;5013036;28;124390;-75
2023/04/02 16:54:59;;;;;;;1.40;1.30;;;10.10;96.40;;;10.32;66.25;98950.97;5007177;27;107355;-76
2023/04/02 16:57:53;;;;;;;2.10;1.70;;;10.20;96.10;;;10.45;65.77;98950.16;5007372;27;107270;-76
2023/04/02 17:00:35;;;;;;;2.10;1.83;;;10.20;96.00;;;10.60;65.13;98963.63;5004071;28;122423;-76
2023/04/02 17:03:50;;;;;;;1.40;1.30;;;10.40;96.00;;;10.72;64.92;98970.56;5023549;28;123759;-77
2023/04/02 17:06:41;;;;;;;1.70;1.60;;;10.50;95.90;;;10.80;64.01;98973.44;5022672;27;106857;-76
2023/04/02 17:09:45;;;;;;;1.63;1.33;;;10.50;95.50;;;10.91;64.09;98973.19;5008827;27;106379;-76
2023/04/02 17:12:51;;;;;;;1.60;1.50;;;10.60;95.50;;;11.01;63.11;98975.72;5007654;27;123482;-77
2023/04/02 17:15:38;;;;;;;7.43;1.50;;;10.70;95.00;;;11.07;62.33;98977.28;5028520;27;123389;-76
2023/04/02 17:18:43;;;;;;;1.50;1.40;;;10.80;94.70;;;11.03;61.27;98999.19;5024116;27;106883;-78
2023/04/02 17:21:22;;;;;;;2.50;1.77;;;10.70;93.90;;;11.06;61.31;98995.78;4986836;28;107438;-80
2023/04/02 17:23:58;;;;;;;1.60;1.50;;;10.70;94.20;;;11.12;61.74;99002.00;4986076;28;124276;-79
2023/04/02 17:26:29;;;;;;;1.77;1.67;;;10.70;94.50;;;11.18;62.21;99009.09;4978322;28;124459;-77
2023/04/02 17:29:08;;;;;;;2.93;1.53;;;10.80;94.50;;;11.23;60.59;99017.28;4974212;28;106836;-78
2023/04/02 17:31:36;;;;;;;1.80;1.60;;;10.90;94.00;;;11.22;60.06;99028.63;4963628;28;107290;-79
2023/04/02 17:34:23;;;;;;;1.93;1.83;;;10.80;93.70;;;11.18;59.39;99028.44;4970760;28;123645;-80
2023/04/02 17:37:25;;;;;;;1.50;1.40;;;10.70;93.30;;;11.14;59.43;99037.66;4984411;28;124306;-80
2023/04/02 17:40:43;;;;;;;1.97;1.50;;;10.70;93.20;;;11.14;59.98;99043.19;4986658;28;107448;-80
2023/04/02 17:43:46;;;;;;;1.70;1.60;;;10.70;93.60;;;11.21;59.51;99043.59;4982824;28;107358;-80
2023/04/02 17:46:41;;;;;;;2.00;1.80;;;10.80;93.10;;;11.16;58.60;99057.53;4987648;28;124062;-79
2023/04/02 17:49:16;;;;;;;1.70;1.60;;;10.70;92.70;;;11.03;58.00;99046.19;4989635;28;122551;-78
2023/04/02 17:52:02;;;;;;;2.00;1.70;;;10.60;92.30;;;10.93;57.91;99057.44;4969536;28;107591;-78
2023/04/02 17:55:05;;;;;;;2.20;1.50;;;10.60;92.40;;;10.88;57.93;99068.63;4982813;28;107443;-77
2023/04/02 17:58:25;;;;;;;1.60;1.50;;;10.50;92.30;;;10.83;58.03;99074.25;4989927;28;124053;-78
2023/04/02 18:01:24;;;;;;;2.03;1.83;;;10.50;92.20;;;10.72;57.31;99081.09;5000387;28;123741;-76
2023/04/02 18:04:24;;;;;;;2.23;2.00;;;10.40;91.70;;;10.61;57.35;99086.84;4986653;28;108403;-78
2023/04/02 18:07:12;;;;;;;2.37;2.03;;;10.20;91.80;;;10.54;57.73;99091.13;4995880;28;107392;-77
2023/04/02 18:10:13;;;;;;;2.27;1.97;;;10.20;91.90;;;10.42;57.58;99101.84;4992903;28;124199;-76
2023/04/02 18:12:55;;;;;;;2.30;1.87;;;10.10;91.70;;;10.33;57.84;99108.06;4990974;28;122936;-77
2023/04/02 18:15:43;;;;;;;3.70;2.10;;;10.00;91.90;;;10.32;57.78;99120.25;5010807;28;106609;-77
2023/04/02 18:18:18;;;;;;;2.50;2.30;;;10.00;91.90;;;10.29;57.90;99122.78;5003826;28;107372;-78
2023/04/02 18:21:05;;;;;;;3.60;2.50;;;9.90;92.20;;;10.24;58.08;99134.72;5019225;28;124952;-80
2023/04/02 18:23:37;;;;;;;2.17;1.97;;;9.90;92.30;;;10.22;58.34;99136.94;5020559;28;123805;-77
2023/04/02 18:26:43;;;;;;;2.70;2.40;;;9.90;92.50;;;10.21;58.10;99137.25;5007612;28;107198;-79
2023/04/02 18:29:54;;;;;;;2.50;2.10;;;9.90;92.30;;;10.17;58.34;99154.41;4996917;28;107863;-77
2023/04/02 18:32:47;;;;;;;2.50;2.20;;;9.90;92.30;;;10.16;58.08;99163.84;5023076;28;124190;-76
2023/04/02 18:35:58;;;;;;;3.77;3.20;;;9.90;92.10;;;10.11;57.51;99166.66;5007727;28;123883;-78
2023/04/02 18:39:13;;;;;;;8.03;2.67;;;9.80;92.00;;;10.04;57.63;99177.25;4989126;28;108126;-79
2023/04/02 18:42:31;;;;;;;4.77;2.77;;;9.80;91.80;;;9.95;57.57;99187.34;4940569;28;107265;-77
2023/04/02 18:45:44;;;;;;;2.47;2.20;;;9.70;91.80;;;9.93;57.59;99192.34;5003792;28;124414;-77
2023/04/02 18:48:41;;;;;;;3.77;3.07;;;9.70;91.80;;;9.92;57.55;99193.47;4985376;28;123882;-78
2023/04/02 18:51:38;;;;;;;3.50;2.50;;;9.60;91.70;;;9.85;57.33;99201.28;4987500;28;107487;-79
2023/04/02 18:54:38;;;;;;;4.33;2.60;;;9.50;91.70;;;9.82;57.77;99208.22;5010564;28;107303;-76
2023/04/02 18:57:15;;;;;;;4.07;2.93;;;9.50;91.80;;;9.86;57.39;99222.25;4941769;28;123575;-78
2023/04/02 19:00:25;;;;;;;3.30;2.50;;;9.50;91.80;;;9.82;57.34;99235.81;4925443;28;124267;-77
2023/04/02 19:03:28;;;;;;;3.40;2.47;;;9.50;91.60;;;9.79;56.94;99244.69;4926718;28;107738;-80
2023/04/02 19:06:24;;;;;;;4.00;2.60;;;9.50;91.50;;;9.77;56.70;99246.13;4916464;28;107308;-77
2023/04/02 19:09:03;;;;;;;4.40;3.27;;;9.50;91.20;;;9.67;56.31;99242.38;4932848;28;124725;-77
2023/04/02 19:11:33;;;;;;;3.63;2.70;;;9.40;91.10;;;9.56;56.16;99249.13;4910601;28;123803;-77
2023/04/02 19:14:08;;;;;;;5.40;2.23;;;9.30;91.00;;;9.52;56.42;99259.94;4924716;28;107398;-77
2023/04/02 19:17:11;;;;;;;3.60;2.63;;;9.30;91.00;;;9.48;56.14;99260.81;4916002;28;107348;-83
2023/04/02 19:20:21;;;;;;;2.70;2.50;;;9.20;90.80;;;9.39;55.51;99266.16;4928361;28;124367;-77
2023/04/02 19:23:21;;;;;;;2.63;2.37;;;9.10;90.40;;;9.29;55.63;99274.53;4916032;28;124230;-78
2023/04/02 19:26:06;;;;;;;3.90;2.70;;;9.00;90.40;;;9.22;55.61;99277.66;4933387;28;107444;-79
2023/04/02 19:28:53;;;;;;;2.90;2.23;;;9.00;90.40;;;9.15;55.41;99282.69;4933337;28;107047;-77
2023/04/02 19:32:00;;;;;;;4.47;2.60;;;8.80;90.20;;;9.08;54.75;99301.50;4929699;28;123923;-81
2023/04/02 19:34:55;;;;;;;4.53;2.47;;;8.80;90.00;;;9.01;55.46;99301.84;4974482;28;123165;-79
2023/04/02 19:38:09;;;;;;;2.90;2.10;;;8.70;90.20;;;8.98;55.28;99309.88;4992786;28;107118;-79
2023/04/02 19:41:29;;;;;;;4.07;2.97;;;8.70;90.00;;;8.97;55.12;99311.81;4931417;28;107136;-80
2023/04/02 19:43:56;;;;;;;2.67;2.30;;;8.70;90.00;;;8.96;55.26;99323.91;4869022;28;124473;-81
2023/04/02 19:46:28;;;;;;;3.77;1.97;;;8.70;89.70;;;8.96;54.94;99334.13;4873701;28;123800;-78
2023/04/02 19:49:07;;;;;;;2.40;2.13;;;8.60;89.80;;;8.98;55.09;99337.44;4855980;28;107054;-78
2023/04/02 19:51:37;;;;;;;3.00;2.40;;;8.70;90.00;;;9.00;54.67;99335.19;4928322;28;107331;-80
2023/04/02 19:54:06;;;;;;;2.50;2.10;;;8.70;89.40;;;9.00;54.97;99335.19;4902651;28;124075;-79
2023/04/02 19:56:41;;;;;;;5.90;2.17;;;8.70;89.50;;;9.03;54.50;99342.91;4887334;28;123317;-79
2023/04/02 19:59:16;;;;;;;3.87;2.60;;;8.80;89.10;;;9.02;53.74;99344.00;4924668;28;107715;-80
2023/04/02 20:01:50;;;;;;;3.77;2.60;;;8.70;88.60;;;8.94;53.58;99352.88;4932690;28;107096;-78
2023/04/02 20:04:24;;;;;;;2.90;2.60;;;8.60;88.40;;;8.90;53.75;99360.91;4921021;28;123357;-76
2023/04/02 20:06:53;;;;;;;3.67;2.20;;;8.50;88.40;;;8.84;53.65;99354.63;4901945;28;124014;-80
2023/04/02 20:09:29;;;;;;;5.97;2.53;;;8.50;88.20;;;8.75;53.39;99356.31;4910857;28;107590;-77
2023/04/02 20:11:55;;;;;;;4.33;2.83;;;8.40;87.70;;;8.64;53.33;99368.53;4915642;28;106678;-79
2023/04/02 20:14:27;;;;;;;3.47;2.57;;;8.20;87.50;;;8.57;53.82;99362.50;4931186;28;123820;-75
2023/04/02 20:16:53;;;;;;;4.40;3.00;;;8.30;88.20;;;8.57;53.63;99370.78;4910119;28;123767;-76
2023/04/02 20:19:20;;;;;;;5.30;2.87;;;8.20;87.90;;;8.52;53.26;99365.31;4925024;28;106977;-76
2023/04/02 20:21:50;;;;;;;2.90;2.30;;;8.20;87.50;;;8.42;52.91;99373.63;4990561;28;106653;-75
2023/04/02 20:24:19;;;;;;;5.13;2.87;;;8.20;86.90;;;8.29;53.23;99373.09;4993287;28;123739;-76
2023/04/02 20:26:49;;;;;;;3.43;2.87;;;8.00;87.00;;;8.26;53.35;99370.91;4995921;28;123903;-76
2023/04/02 20:29:15;;;;;;;3.03;2.57;;;7.90;86.70;;;8.24;53.14;99381.38;4996042;28;107551;-78
2023/04/02 20:31:42;;;;;;;6.70;3.37;;;7.90;86.80;;;8.23;53.18;99382.50;4995094;28;107183;-78
2023/04/02 20:34:12;;;;;;;6.80;3.13;;;7.90;86.90;;;8.22;52.66;99386.38;4991368;28;123965;-76
2023/04/02 20:36:39;;;;;;;2.80;2.33;;;7.90;86.20;;;8.21;52.75;99386.66;4993359;28;122970;-76
2023/04/02 20:39:18;;;;;;;5.63;3.00;;;7.90;86.30;;;8.18;52.33;99385.28;4992672;28;107553;-76
2023/04/02 20:41:50;;;;;;;4.33;2.87;;;7.80;85.80;;;8.13;52.49;99394.38;4997274;28;106321;-76
2023/04/02 20:44:17;;;;;;;3.80;2.50;;;7.80;85.80;;;8.07;52.49;99406.50;4996537;28;124812;-78
2023/04/02 20:46:43;;;;;;;9.80;2.70;;;7.70;85.50;;;8.01;52.67;99390.31;4987030;28;123165;-78
2023/04/02 20:49:17;;;;;;;3.50;2.53;;;7.70;85.70;;;7.97;52.51;99401.03;4992625;28;107301;-78
2023/04/02 20:51:43;;;;;;;2.97;2.23;;;7.60;85.60;;;7.93;52.36;99413.72;4991147;28;107304;-76
2023/04/02 20:54:12;;;;;;;3.73;2.07;;;7.60;85.60;;;7.91;52.43;99413.19;4990186;28;123984;-76
2023/04/02 20:56:42;;;;;;;3.97;2.53;;;7.60;85.70;;;7.92;52.76;99420.31;4989624;28;124239;-77
2023/04/02 20:59:10;;;;;;;;;;;7.60;85.50;;;7.92;52.43;99425.81;4983176;28;107718;-78
2023/04/02 21:01:37;;;;;;;2.87;2.20;;;7.60;85.70;;;7.92;52.79;99420.31;5004608;28;105999;-77
2023/04/02 21:04:04;;;;;;;2.77;2.10;;;7.60;85.60;;;7.90;52.69;99417.88;5016065;27;123922;-79
2023/04/02 21:06:37;;;;;;;4.03;2.30;;;7.60;85.60;;;7.93;52.56;99425.56;4986310;28;125603;-77
2023/04/02 21:09:16;;;;;;;3.23;2.57;;;6.20;84.50;;;7.95;52.67;99431.59;5004782;28;107397;-77
2023/04/02 21:11:45;;;;;;;2.70;2.40;;;7.60;85.80;;;7.92;52.80;99428.56;5016827;28;107586;-78
2023/04/02 21:14:13;;;;;;;3.60;2.33;;;7.60;85.60;;;7.87;52.54;99440.44;4993943;28;123862;-77
2023/04/02 21:16:40;;;;;;;5.17;2.40;;;7.50;86.10;;;7.81;52.89;99444.28;4992722;28;123953;-77